Time;durP1;ratioP1;P1;durP2;ratioP2;P2;SDS_P1;SDS_P2;PMS_P1;PMS_P2;Temp;Humidity;BMP_temperature;BMP_pressure;BME280_temperature;BME280_humidity;BME280_pressure;Samples;Min_cycle;Max_cycle;Signal;HPM_P1;HPM_P2
2022/01/11 00:11:02;;;;;;;482.13;175.00;;;;;;;-4.83;75.28;102100.07;742024;1154;114799;-85
2022/01/11 00:26:05;;;;;;;567.75;182.98;;;;;;;-4.79;75.65;102095.83;741237;1154;116138;-86
2022/01/11 00:41:10;;;;;;;439.50;134.37;;;;;;;-4.78;75.55;102113.76;740842;1162;115932;-85
2022/01/11 00:56:13;;;;;;;491.83;148.88;;;;;;;-5.01;75.04;102116.21;741063;1153;114427;-87
2022/01/11 01:11:15;;;;;;;548.80;170.93;;;;;;;-5.04;75.54;102129.84;741666;1154;114407;-87
2022/01/11 01:26:18;;;;;;;464.65;142.33;;;;;;;-4.62;76.31;102132.64;740764;1155;114473;-88
2022/01/11 01:41:22;;;;;;;316.43;96.88;;;;;;;-4.24;77.00;102129.34;740377;1154;114433;-88
2022/01/11 01:56:27;;;;;;;302.00;93.27;;;;;;;-3.82;77.34;102132.02;741074;1154;114560;-87
2022/01/11 02:11:34;;;;;;;248.95;80.40;;;;;;;-3.49;77.71;102135.45;740664;1154;114293;-86
2022/01/11 02:26:51;;;;;;;299.60;92.08;;;;;;;-3.25;77.43;102144.84;740955;1154;115024;-87
2022/01/11 02:41:56;;;;;;;299.63;99.73;;;;;;;-3.20;78.64;102150.84;740537;1161;114637;-89
2022/01/11 02:56:59;;;;;;;324.13;98.85;;;;;;;-2.88;79.11;102146.52;740452;1154;114896;-87
2022/01/11 03:12:01;;;;;;;312.28;96.75;;;;;;;-2.86;78.80;102150.79;740274;1160;114727;-87
2022/01/11 03:27:07;;;;;;;283.80;92.65;;;;;;;-2.80;79.14;102178.17;740659;1156;114116;-87
2022/01/11 03:42:09;;;;;;;296.10;96.38;;;;;;;-2.82;79.90;102191.88;740607;1162;114289;-86
2022/01/11 03:57:11;;;;;;;341.25;109.80;;;;;;;-2.54;80.00;102187.55;740820;1154;114414;-86
2022/01/11 04:12:14;;;;;;;393.35;127.03;;;;;;;-2.40;80.30;102180.64;740384;1162;115422;-86
2022/01/11 04:27:16;;;;;;;270.03;89.87;;;;;;;-2.39;81.26;102186.63;740372;1162;115338;-85
2022/01/11 04:42:18;;;;;;;542.58;215.45;;;;;;;-2.29;82.01;102188.31;740578;1154;114393;-86
2022/01/11 04:57:21;;;;;;;452.53;163.25;;;;;;;-2.17;82.38;102198.53;743309;1153;115071;-86
2022/01/11 05:12:23;;;;;;;499.15;170.70;;;;;;;-1.85;83.25;102192.40;741602;1162;114258;-88
2022/01/11 05:27:27;;;;;;;467.65;156.58;;;;;;;-1.57;82.69;102204.22;740709;1154;115108;-88
2022/01/11 05:42:30;;;;;;;365.45;117.40;;;;;;;-1.47;83.01;102210.17;741329;1155;114331;-88
2022/01/11 05:57:32;;;;;;;417.18;153.65;;;;;;;-1.38;83.54;102207.53;740895;1154;115504;-87
2022/01/11 06:12:34;;;;;;;316.58;105.95;;;;;;;-1.32;83.55;102216.92;740613;1154;115684;-85
2022/01/11 06:27:40;;;;;;;382.70;132.95;;;;;;;-1.39;82.99;102234.14;740913;1154;114448;-88
2022/01/11 06:42:53;;;;;;;407.25;147.68;;;;;;;-1.50;83.93;102262.55;740862;1154;115561;-85
2022/01/11 06:57:55;;;;;;;480.23;175.78;;;;;;;-1.45;83.93;102270.22;740847;1155;114492;-86
2022/01/11 07:12:57;;;;;;;544.60;210.40;;;;;;;-1.18;84.81;102300.94;740735;1155;115636;-88
2022/01/11 07:28:00;;;;;;;630.13;234.83;;;;;;;-1.15;84.87;102301.80;741821;1154;114647;-88
2022/01/11 07:43:02;;;;;;;586.25;239.60;;;;;;;-1.00;84.95;102314.59;741287;1162;114327;-87
2022/01/11 07:58:05;;;;;;;495.38;194.93;;;;;;;-0.86;84.94;102330.80;741417;1162;115651;-79
2022/01/11 08:13:09;;;;;;;577.68;243.00;;;;;;;-0.60;86.30;102340.03;742250;1162;114490;-78
2022/01/11 08:28:12;;;;;;;618.20;250.43;;;;;;;-0.29;87.04;102352.67;740132;1155;115191;-79
2022/01/11 08:43:15;;;;;;;383.95;126.15;;;;;;;0.02;86.89;102356.66;741730;1155;115011;-79
2022/01/11 08:58:20;;;;;;;277.25;98.53;;;;;;;0.11;86.81;102382.38;743235;1157;114620;-79
2022/01/11 09:13:25;;;;;;;331.07;123.07;;;;;;;0.41;87.60;102381.16;744160;1162;114938;-78
2022/01/11 09:28:28;;;;;;;415.60;153.00;;;;;;;0.86;87.31;102371.96;743893;1154;114792;-78
2022/01/11 09:43:30;;;;;;;360.23;118.00;;;;;;;1.39;86.56;102367.72;742793;1157;114309;-79
2022/01/11 09:58:33;;;;;;;501.95;178.63;;;;;;;1.64;86.94;102377.67;743543;1161;114295;-78
2022/01/11 10:13:40;;;;;;;402.83;143.83;;;;;;;1.98;86.32;102384.84;744802;1162;114071;-77
2022/01/11 10:28:42;;;;;;;433.53;157.47;;;;;;;2.16;85.66;102383.62;741209;1154;115390;-77
2022/01/11 10:43:45;;;;;;;385.38;144.20;;;;;;;2.45;85.75;102398.58;740495;1154;113465;-77
2022/01/11 10:59:09;;;;;;;330.68;127.33;;;;;;;2.75;85.50;102380.69;740882;1155;114574;-76
2022/01/11 11:14:11;;;;;;;332.77;123.13;;;;;;;3.09;84.55;102386.84;740839;1162;114768;-76
2022/01/11 11:29:14;;;;;;;294.98;115.98;;;;;;;3.78;84.94;102398.14;740887;1154;113869;-77
2022/01/11 11:44:40;;;;;;;245.73;95.22;;;;;;;3.91;84.29;102379.67;740514;1157;114535;-76
2022/01/11 11:59:51;;;;;;;228.18;91.83;;;;;;;3.73;83.48;102379.23;742117;1157;114096;-86
2022/01/11 12:14:54;;;;;;;185.55;67.30;;;;;;;3.54;83.38;102378.87;742659;1162;115133;-84
2022/01/11 12:30:02;;;;;;;103.15;41.75;;;;;;;3.27;83.04;102385.58;740864;1154;115103;-83
2022/01/11 13:00:11;;;;;;;138.97;47.30;;;;;;;2.92;83.16;102374.30;741025;1154;115344;-82
2022/01/11 13:15:26;;;;;;;56.85;25.58;;;;;;;2.72;81.73;102366.94;741796;1155;114737;-84
2022/01/11 13:30:45;;;;;;;163.43;53.88;;;;;;;2.50;82.95;102373.43;740975;1154;114566;-83
2022/01/11 13:45:47;;;;;;;126.55;48.60;;;;;;;2.87;81.54;102389.09;740267;1162;113881;-83
2022/01/11 14:00:51;;;;;;;89.93;41.13;;;;;;;2.29;82.94;102389.42;743553;1154;114549;-84
2022/01/11 14:15:54;;;;;;;253.65;81.18;;;;;;;2.10;83.89;102401.85;743921;1154;114037;-81
2022/01/11 14:31:16;;;;;;;135.27;51.57;;;;;;;1.90;83.65;102392.74;740417;1162;114895;-82
2022/01/11 14:46:19;;;;;;;404.28;102.40;;;;;;;1.49;84.38;102378.76;741096;1153;114779;-84
2022/01/11 15:01:26;;;;;;;165.93;61.35;;;;;;;1.07;84.32;102383.73;740264;1162;114160;-82
2022/01/11 15:16:28;;;;;;;369.15;91.53;;;;;;;0.61;84.72;102387.81;742287;1155;114300;-82
2022/01/11 15:31:31;;;;;;;168.98;69.28;;;;;;;0.58;85.51;102383.55;740810;1154;115382;-89
2022/01/11 15:46:34;;;;;;;342.98;115.38;;;;;;;0.45;86.72;102380.25;747582;1154;115134;-86
2022/01/11 16:01:37;;;;;;;352.03;107.55;;;;;;;0.15;85.97;102381.46;741960;1154;115516;-81
2022/01/11 16:16:39;;;;;;;313.03;120.40;;;;;;;-0.38;85.73;102401.77;740805;1154;115049;-82
2022/01/11 16:31:43;;;;;;;582.47;181.90;;;;;;;-0.49;86.23;102417.30;741089;1162;114386;-81
2022/01/11 16:46:52;;;;;;;317.08;104.35;;;;;;;-0.79;86.20;102411.52;740316;1154;114270;-81
2022/01/11 17:01:57;;;;;;;1052.63;421.75;;;;;;;-1.13;86.11;102414.28;740528;1157;114323;-81
2022/01/11 17:17:00;;;;;;;467.50;149.10;;;;;;;-1.33;85.62;102414.38;741153;1162;116270;-80
2022/01/11 17:32:03;;;;;;;470.00;156.95;;;;;;;-1.24;85.89;102419.48;740886;1154;115131;-80
2022/01/11 17:47:05;;;;;;;391.05;117.78;;;;;;;-1.40;85.38;102426.42;740897;1162;115602;-81
2022/01/11 18:02:11;;;;;;;1050.28;403.98;;;;;;;-1.64;85.49;102439.37;740655;1154;115009;-81
2022/01/11 18:17:14;;;;;;;808.38;292.83;;;;;;;-1.86;85.90;102435.13;740608;1162;115111;-83
2022/01/11 18:32:37;;;;;;;627.40;232.13;;;;;;;-2.04;86.03;102442.88;741580;1155;115559;-86
2022/01/11 18:47:39;;;;;;;395.45;113.50;;;;;;;-2.33;85.25;102437.75;741522;1154;114582;-83
2022/01/11 19:02:42;;;;;;;280.93;95.98;;;;;;;-2.52;84.78;102443.72;740620;1161;115981;-83
2022/01/11 19:17:49;;;;;;;283.63;99.13;;;;;;;-2.88;83.91;102434.23;740773;1154;114288;-83
2022/01/11 19:32:51;;;;;;;337.85;110.65;;;;;;;-3.41;83.43;102431.47;741217;1154;115542;-82
2022/01/11 19:47:56;;;;;;;388.00;119.47;;;;;;;-3.47;84.31;102431.47;741163;1162;115049;-85
2022/01/11 20:03:01;;;;;;;256.78;85.50;;;;;;;-3.47;84.42;102453.69;741056;1162;113853;-85
2022/01/11 20:18:05;;;;;;;390.18;115.65;;;;;;;-3.40;84.58;102448.59;740798;1162;114161;-85
2022/01/11 20:33:07;;;;;;;269.05;83.38;;;;;;;-3.27;84.75;102472.63;741049;1154;114969;-80
2022/01/11 20:48:10;;;;;;;296.78;93.63;;;;;;;-3.14;84.86;102459.83;741322;1154;114637;-80
2022/01/11 21:03:15;;;;;;;290.68;94.05;;;;;;;-3.29;84.97;102452.93;740983;1154;115870;-80
2022/01/11 21:33:42;;;;;;;458.28;150.13;;;;;;;-3.18;85.47;102482.06;741404;1154;100114;-79
2022/01/11 21:48:44;;;;;;;410.00;130.50;;;;;;;-3.01;87.37;102465.03;741185;1154;115090;-80
2022/01/11 22:03:47;;;;;;;656.35;229.20;;;;;;;-2.79;87.56;102465.08;740574;1155;114573;-81
2022/01/11 22:18:49;;;;;;;780.63;265.20;;;;;;;-2.52;87.88;102460.84;740613;1162;114939;-80
2022/01/11 22:33:51;;;;;;;233.53;81.07;;;;;;;-2.46;88.52;102460.86;741019;1154;114442;-81
2022/01/11 22:48:53;;;;;;;769.88;260.68;;;;;;;-2.32;89.03;102444.58;741036;1154;114811;-80
2022/01/11 23:03:55;;;;;;;710.33;252.77;;;;;;;-2.17;89.91;102455.72;741077;1154;115198;-80
2022/01/11 23:19:01;;;;;;;557.70;199.88;;;;;;;-2.09;89.54;102452.30;740911;1154;114322;-80
2022/01/11 23:34:03;;;;;;;600.15;215.15;;;;;;;-1.91;88.74;102447.14;740625;1162;114774;-80
2022/01/11 23:49:06;;;;;;;522.90;182.13;;;;;;;-1.73;88.57;102429.94;741767;1162;114456;-80
